createdAt,value
2023-05-18T00:00:02.452Z,7.73
2023-05-18T00:02:29.080Z,7.76
2023-05-18T00:04:55.671Z,7.39
2023-05-18T00:07:22.479Z,7.31
2023-05-18T00:09:49.024Z,7.27
2023-05-18T00:12:15.667Z,7.28
2023-05-18T00:14:42.190Z,7.21
2023-05-18T00:17:08.675Z,7.22
2023-05-18T00:19:35.168Z,7.26
2023-05-18T00:22:02.287Z,7.33
2023-05-18T00:24:28.948Z,7.27
2023-05-18T00:26:55.507Z,7.42
2023-05-18T00:29:22.073Z,7.22
2023-05-18T00:31:48.752Z,7.35
2023-05-18T00:34:16.204Z,7.28
2023-05-18T00:36:42.987Z,7.29
2023-05-18T00:39:09.671Z,7.15
2023-05-18T00:41:36.572Z,7.13
2023-05-18T00:44:04.642Z,7.17
2023-05-18T00:46:31.405Z,7.16
2023-05-18T00:48:58.848Z,7.12
2023-05-18T00:51:26.065Z,7.14
2023-05-18T00:53:54.986Z,7.18
2023-05-18T00:56:26.338Z,7.04
2023-05-18T00:58:57.565Z,7.16
2023-05-18T01:01:29.605Z,7.27
2023-05-18T01:03:57.965Z,7.26
2023-05-18T01:07:16.811Z,7.25
2023-05-18T01:09:43.357Z,7.26
2023-05-18T01:12:33.092Z,7.29
2023-05-18T01:15:05.468Z,7.22
2023-05-18T01:18:05.102Z,7.25
2023-05-18T01:20:38.086Z,7.30
2023-05-18T01:23:45.240Z,7.32
2023-05-18T01:26:16.795Z,7.34
2023-05-18T01:28:46.542Z,7.32
2023-05-18T01:31:16.117Z,7.29
2023-05-18T01:33:44.491Z,7.28
2023-05-18T01:36:11.473Z,7.19
2023-05-18T01:38:41.676Z,7.24
2023-05-18T01:41:24.303Z,7.25
2023-05-18T01:44:24.767Z,7.29
2023-05-18T01:47:00.211Z,7.18
2023-05-18T01:49:37.652Z,7.24
2023-05-18T01:52:09.058Z,7.28
2023-05-18T01:54:38.553Z,7.28
2023-05-18T01:57:08.327Z,6.84
2023-05-18T01:59:36.225Z,6.87
2023-05-18T02:02:03.583Z,6.93
2023-05-18T02:04:30.227Z,6.71
2023-05-18T02:06:56.943Z,6.89
2023-05-18T02:09:23.636Z,6.90
2023-05-18T02:11:50.149Z,6.72
2023-05-18T02:14:16.669Z,6.86
2023-05-18T02:16:47.412Z,6.93
2023-05-18T02:19:17.531Z,6.81
2023-05-18T02:21:44.669Z,6.88
2023-05-18T02:24:12.545Z,6.90
2023-05-18T02:26:39.754Z,6.80
2023-05-18T02:29:06.680Z,6.76
2023-05-18T02:31:33.275Z,6.86
2023-05-18T02:33:59.813Z,6.88
2023-05-18T02:36:26.303Z,6.86
2023-05-18T02:38:52.970Z,6.89
2023-05-18T02:41:19.504Z,6.85
2023-05-18T02:43:45.943Z,6.58
2023-05-18T02:46:12.435Z,6.61
2023-05-18T02:48:38.976Z,6.64
2023-05-18T02:51:05.481Z,6.67
2023-05-18T02:53:32.032Z,6.66
2023-05-18T02:55:58.544Z,6.70
2023-05-18T02:58:25.661Z,6.76
2023-05-18T03:00:55.186Z,6.76
2023-05-18T03:03:23.848Z,6.68
2023-05-18T03:05:52.959Z,6.78
2023-05-18T03:08:26.927Z,6.75
2023-05-18T03:10:53.590Z,6.77
2023-05-18T03:13:20.236Z,6.78
2023-05-18T03:15:47.104Z,6.72
2023-05-18T03:18:13.636Z,6.65
2023-05-18T03:20:40.687Z,6.71
2023-05-18T03:23:07.451Z,6.67
2023-05-18T03:25:37.235Z,6.68
2023-05-18T03:28:05.458Z,6.74
2023-05-18T03:30:34.032Z,6.65
2023-05-18T03:33:01.997Z,6.66
2023-05-18T03:35:29.173Z,6.70
2023-05-18T03:37:56.100Z,6.71
2023-05-18T03:40:23.231Z,6.68
2023-05-18T03:42:49.773Z,6.67
2023-05-18T03:45:16.414Z,6.71
2023-05-18T03:47:43.078Z,6.79
2023-05-18T03:50:10.603Z,6.85
2023-05-18T03:52:37.385Z,6.80
2023-05-18T03:55:05.093Z,6.84
2023-05-18T03:57:32.277Z,6.88
2023-05-18T03:59:58.857Z,6.86
2023-05-18T04:02:25.867Z,6.79
2023-05-18T04:04:54.564Z,6.86
2023-05-18T04:07:24.234Z,6.88
2023-05-18T04:09:55.633Z,6.73
2023-05-18T04:12:22.566Z,6.89
2023-05-18T04:14:51.712Z,6.93
2023-05-18T04:17:22.239Z,6.99
2023-05-18T04:19:50.085Z,7.03
2023-05-18T04:22:17.256Z,6.94
2023-05-18T04:24:45.730Z,7.01
2023-05-18T04:27:12.368Z,6.97
2023-05-18T04:29:40.246Z,7.09
2023-05-18T04:32:08.033Z,7.13
2023-05-18T04:34:37.988Z,7.11
2023-05-18T04:37:07.982Z,6.87
2023-05-18T04:39:35.130Z,6.95
2023-05-18T04:42:04.541Z,6.95
2023-05-18T04:44:34.114Z,6.82
2023-05-18T04:47:00.921Z,6.74
2023-05-18T04:49:28.248Z,6.91
2023-05-18T04:51:56.718Z,6.79
2023-05-18T04:54:24.159Z,6.89
2023-05-18T04:56:51.656Z,6.87
2023-05-18T04:59:18.862Z,6.92
2023-05-18T05:01:46.341Z,6.98
2023-05-18T05:04:13.423Z,7.08
2023-05-18T05:06:39.966Z,7.10
2023-05-18T05:09:06.460Z,7.19
2023-05-18T05:11:33.028Z,7.17
2023-05-18T05:14:04.140Z,7.28
2023-05-18T05:16:30.981Z,7.10
2023-05-18T05:18:57.622Z,7.25
2023-05-18T05:21:24.251Z,7.37
2023-05-18T05:23:50.865Z,7.29
2023-05-18T05:26:18.230Z,7.42
2023-05-18T05:28:44.748Z,7.43
2023-05-18T05:31:11.596Z,7.50
2023-05-18T05:33:38.347Z,7.54
2023-05-18T05:36:05.427Z,7.51
2023-05-18T05:38:32.641Z,7.56
2023-05-18T05:40:59.253Z,7.59
2023-05-18T05:43:26.347Z,7.75
2023-05-18T05:45:54.268Z,7.69
2023-05-18T05:48:20.957Z,7.67
2023-05-18T05:50:47.523Z,7.72
2023-05-18T05:53:17.778Z,7.77
2023-05-18T05:55:44.294Z,7.71
2023-05-18T05:58:11.140Z,7.78
2023-05-18T06:00:37.688Z,7.77
2023-05-18T06:03:04.199Z,7.87
2023-05-18T06:05:30.944Z,7.94
2023-05-18T06:07:57.653Z,7.97
2023-05-18T06:10:24.256Z,7.93
2023-05-18T06:12:50.950Z,7.51
2023-05-18T06:15:18.864Z,7.59
2023-05-18T06:17:45.571Z,7.55
2023-05-18T06:20:12.896Z,7.47
2023-05-18T06:22:39.541Z,7.64
2023-05-18T06:25:06.196Z,7.72
2023-05-18T06:27:33.021Z,7.98
2023-05-18T06:29:59.475Z,8.16
2023-05-18T06:32:26.108Z,8.20
2023-05-18T06:34:52.744Z,8.29
2023-05-18T06:37:20.639Z,8.30
2023-05-18T06:39:47.200Z,8.48
2023-05-18T06:42:13.720Z,8.80
2023-05-18T06:44:40.160Z,8.89
2023-05-18T06:47:07.048Z,9.04
2023-05-18T06:49:33.686Z,9.15
2023-05-18T06:52:00.184Z,9.29
2023-05-18T06:54:26.822Z,9.25
2023-05-18T06:56:53.334Z,9.48
2023-05-18T06:59:19.824Z,9.59
2023-05-18T07:01:46.493Z,9.73
2023-05-18T07:04:13.259Z,9.71
2023-05-18T07:06:39.901Z,9.97
2023-05-18T07:09:08.026Z,9.76
2023-05-18T07:11:34.619Z,9.97
2023-05-18T07:14:01.552Z,10.16
2023-05-18T07:16:28.292Z,10.26
2023-05-18T07:18:54.901Z,10.69
2023-05-18T07:21:21.483Z,10.71
2023-05-18T07:23:47.961Z,11.41
2023-05-18T07:26:14.446Z,11.48
2023-05-18T07:28:41.034Z,11.78
2023-05-18T07:31:07.697Z,11.82
2023-05-18T07:33:34.475Z,12.24
2023-05-18T07:36:01.088Z,12.51
2023-05-18T07:38:28.536Z,12.87
2023-05-18T07:40:55.008Z,13.04
2023-05-18T07:43:21.494Z,13.73
2023-05-18T07:45:47.995Z,14.10
2023-05-18T07:48:14.548Z,14.02
2023-05-18T07:50:41.383Z,13.93
2023-05-18T07:53:07.892Z,14.65
2023-05-18T07:55:34.547Z,15.02
2023-05-18T07:58:01.118Z,14.76
2023-05-18T08:00:28.100Z,15.23
2023-05-18T08:02:55.007Z,15.53
2023-05-18T08:05:22.694Z,15.20
2023-05-18T08:07:49.592Z,15.05
2023-05-18T08:10:16.088Z,14.80
2023-05-18T08:12:42.709Z,14.01
2023-05-18T08:15:10.496Z,13.79
2023-05-18T08:17:37.031Z,13.05
2023-05-18T08:20:04.996Z,13.11
2023-05-18T08:22:31.451Z,12.83
2023-05-18T08:25:00.876Z,12.73
2023-05-18T08:27:28.841Z,13.78
2023-05-18T08:29:55.305Z,13.47
2023-05-18T08:32:21.903Z,13.64
2023-05-18T08:34:51.312Z,13.32
2023-05-18T08:37:17.864Z,13.38
2023-05-18T08:39:46.092Z,13.41
2023-05-18T08:42:49.507Z,13.14
2023-05-18T08:45:33.148Z,12.58
2023-05-18T08:48:01.642Z,12.79
2023-05-18T08:50:32.013Z,12.74
2023-05-18T08:53:02.344Z,13.31
2023-05-18T08:55:29.592Z,13.98
2023-05-18T08:58:00.090Z,13.91
2023-05-18T09:00:27.363Z,14.51
2023-05-18T09:02:54.459Z,14.55
2023-05-18T09:05:22.975Z,14.15
2023-05-18T09:07:52.428Z,13.85
2023-05-18T09:10:19.046Z,13.78
2023-05-18T09:12:47.199Z,13.69
2023-05-18T09:15:15.866Z,13.53
2023-05-18T09:17:42.489Z,13.74
2023-05-18T09:20:10.143Z,14.90
2023-05-18T09:22:37.174Z,15.31
2023-05-18T09:25:04.111Z,15.01
2023-05-18T09:27:31.081Z,14.65
2023-05-18T09:29:58.654Z,14.36
2023-05-18T09:32:26.505Z,14.37
2023-05-18T09:34:53.889Z,14.30
2023-05-18T09:37:21.872Z,14.58
2023-05-18T09:39:59.209Z,14.63
2023-05-18T09:42:39.436Z,15.40
2023-05-18T09:45:16.232Z,15.99
2023-05-18T09:47:42.869Z,15.28
2023-05-18T09:50:09.736Z,15.15
2023-05-18T09:52:47.227Z,15.11
2023-05-18T09:55:16.623Z,14.45
2023-05-18T09:57:44.671Z,14.12
2023-05-18T10:00:12.782Z,14.09
2023-05-18T10:02:48.617Z,14.71
2023-05-18T10:05:20.235Z,15.49
2023-05-18T10:07:48.494Z,15.62
2023-05-18T10:10:19.640Z,15.06
2023-05-18T10:12:46.461Z,14.96
2023-05-18T10:15:18.155Z,14.65
2023-05-18T10:17:46.693Z,14.29
2023-05-18T10:20:17.390Z,14.20
2023-05-18T10:22:46.446Z,14.24
2023-05-18T10:25:19.455Z,15.41
2023-05-18T10:27:48.282Z,15.94
2023-05-18T10:30:16.532Z,15.78
2023-05-18T10:32:43.821Z,16.48
2023-05-18T10:35:11.151Z,17.11
2023-05-18T10:37:40.210Z,17.46
2023-05-18T10:40:08.558Z,16.80
2023-05-18T10:42:35.237Z,16.27
2023-05-18T10:45:02.855Z,16.44
2023-05-18T10:47:29.627Z,15.97
2023-05-18T10:49:59.682Z,15.71
2023-05-18T10:52:31.714Z,16.01
2023-05-18T10:55:01.606Z,15.47
2023-05-18T10:57:37.969Z,15.36
2023-05-18T11:00:07.849Z,15.37
2023-05-18T11:02:35.162Z,16.20
2023-05-18T11:05:05.777Z,16.37
2023-05-18T11:07:34.014Z,14.70
2023-05-18T11:10:08.658Z,14.50
2023-05-18T11:12:38.239Z,14.60
2023-05-18T11:15:05.954Z,14.10
2023-05-18T11:17:32.834Z,14.43
2023-05-18T11:20:09.051Z,14.62
2023-05-18T11:22:45.342Z,15.46
2023-05-18T11:25:24.086Z,16.05
2023-05-18T11:27:52.169Z,15.60
2023-05-18T11:30:34.025Z,14.75
2023-05-18T11:33:24.490Z,14.57
2023-05-18T11:36:09.436Z,14.62
2023-05-18T11:38:49.531Z,14.16
2023-05-18T11:41:29.262Z,14.00
2023-05-18T11:44:15.925Z,14.13
2023-05-18T11:46:56.350Z,14.61
2023-05-18T11:49:28.527Z,14.61
2023-05-18T11:52:06.129Z,14.85
2023-05-18T11:54:42.837Z,14.04
2023-05-18T11:57:11.250Z,13.62
2023-05-18T11:59:39.161Z,13.59
2023-05-18T12:02:06.378Z,13.03
2023-05-18T12:04:34.107Z,12.44
2023-05-18T12:07:05.699Z,12.39
2023-05-18T12:09:32.321Z,12.70
2023-05-18T12:11:58.813Z,12.98
2023-05-18T12:14:26.636Z,12.77
2023-05-18T12:16:54.616Z,13.05
2023-05-18T12:19:23.476Z,12.98
2023-05-18T12:21:50.033Z,12.82
2023-05-18T12:24:16.923Z,13.03
2023-05-18T12:26:46.612Z,13.47
2023-05-18T12:29:20.052Z,12.96
2023-05-18T12:31:47.677Z,13.03
2023-05-18T12:34:14.900Z,12.76
2023-05-18T12:36:54.745Z,13.03
2023-05-18T12:39:21.763Z,13.40
2023-05-18T12:41:48.780Z,13.41
2023-05-18T12:44:15.475Z,13.46
2023-05-18T12:46:43.301Z,13.56
2023-05-18T12:49:10.839Z,14.00
2023-05-18T12:51:39.039Z,13.44
2023-05-18T12:54:06.961Z,12.72
2023-05-18T12:56:51.530Z,12.73
2023-05-18T12:59:21.042Z,12.57
2023-05-18T13:01:47.674Z,12.77
2023-05-18T13:04:14.291Z,12.90
2023-05-18T13:06:41.989Z,12.98
2023-05-18T13:09:17.688Z,13.10
2023-05-18T13:11:59.982Z,13.34
2023-05-18T13:14:38.121Z,13.74
2023-05-18T13:17:04.916Z,14.09
2023-05-18T13:19:35.731Z,14.28
2023-05-18T13:22:02.294Z,14.39
2023-05-18T13:24:28.993Z,14.29
2023-05-18T13:26:55.528Z,14.02
2023-05-18T13:29:22.060Z,13.22
2023-05-18T13:31:48.614Z,13.11
2023-05-18T13:34:15.131Z,13.01
2023-05-18T13:36:41.688Z,12.64
2023-05-18T13:39:08.359Z,12.64
2023-05-18T13:41:36.368Z,12.57
2023-05-18T13:44:03.441Z,12.73
2023-05-18T13:46:30.033Z,12.66
2023-05-18T13:48:56.544Z,13.06
2023-05-18T13:51:23.044Z,13.26
2023-05-18T13:53:49.603Z,13.19
2023-05-18T13:56:16.333Z,13.33
2023-05-18T13:58:43.654Z,13.62
2023-05-18T14:01:12.759Z,13.89
2023-05-18T14:03:40.607Z,13.86
2023-05-18T14:06:07.491Z,13.42
2023-05-18T14:08:34.224Z,13.24
2023-05-18T14:11:00.861Z,13.58
2023-05-18T14:13:27.399Z,13.07
2023-05-18T14:15:53.902Z,12.93
2023-05-18T14:18:20.364Z,13.16
2023-05-18T14:20:48.446Z,13.13
2023-05-18T14:23:15.025Z,13.14
2023-05-18T14:25:43.566Z,13.45
2023-05-18T14:28:10.426Z,13.51
2023-05-18T14:30:37.152Z,13.66
2023-05-18T14:33:04.084Z,13.18
2023-05-18T14:35:30.616Z,12.90
2023-05-18T14:37:57.070Z,13.07
2023-05-18T14:40:23.651Z,12.98
2023-05-18T14:42:52.253Z,13.43
2023-05-18T14:45:20.543Z,13.86
2023-05-18T14:47:47.183Z,13.68
2023-05-18T14:50:13.706Z,13.54
2023-05-18T14:52:40.278Z,13.63
2023-05-18T14:55:07.048Z,13.49
2023-05-18T14:57:33.641Z,13.78
2023-05-18T15:00:00.946Z,13.61
2023-05-18T15:02:27.822Z,13.62
2023-05-18T15:04:54.456Z,13.95
2023-05-18T15:07:21.015Z,13.93
2023-05-18T15:09:47.501Z,14.17
2023-05-18T15:12:13.987Z,14.23
2023-05-18T15:14:40.459Z,13.63
2023-05-18T15:17:08.474Z,13.62
2023-05-18T15:19:35.012Z,13.53
2023-05-18T15:22:01.660Z,13.79
2023-05-18T15:24:28.204Z,14.10
2023-05-18T15:26:54.770Z,14.07
2023-05-18T15:29:21.629Z,14.20
2023-05-18T15:31:50.891Z,14.15
2023-05-18T15:34:17.677Z,13.88
2023-05-18T15:36:44.149Z,13.95
2023-05-18T15:39:10.630Z,13.92
2023-05-18T15:41:37.211Z,13.90
2023-05-18T15:44:04.002Z,13.91
2023-05-18T15:46:33.107Z,13.88
2023-05-18T15:48:59.826Z,13.70
2023-05-18T15:51:26.357Z,13.81
2023-05-18T15:53:53.112Z,14.05
2023-05-18T15:56:19.795Z,13.82
2023-05-18T15:58:46.389Z,13.61
2023-05-18T16:01:12.915Z,13.82
2023-05-18T16:03:39.734Z,13.67
2023-05-18T16:06:06.557Z,13.68
2023-05-18T16:08:35.583Z,13.61
2023-05-18T16:11:02.364Z,13.58
2023-05-18T16:13:28.883Z,13.14
2023-05-18T16:15:55.455Z,13.03
2023-05-18T16:18:21.968Z,13.32
2023-05-18T16:20:48.714Z,13.41
2023-05-18T16:23:15.157Z,13.13
2023-05-18T16:25:42.175Z,12.95
2023-05-18T16:28:08.691Z,12.88
2023-05-18T16:30:35.162Z,13.02
2023-05-18T16:33:01.832Z,13.00
2023-05-18T16:35:30.932Z,12.83
2023-05-18T16:37:57.861Z,12.90
2023-05-18T16:40:24.370Z,12.91
2023-05-18T16:42:50.881Z,13.03
2023-05-18T16:45:17.395Z,13.02
2023-05-18T16:47:44.598Z,12.96
2023-05-18T16:50:11.306Z,13.02
2023-05-18T16:52:37.754Z,12.99
2023-05-18T16:55:04.515Z,12.94
2023-05-18T16:57:30.991Z,13.20
2023-05-18T16:59:57.470Z,12.82
2023-05-18T17:02:24.478Z,12.83
2023-05-18T17:04:51.101Z,12.75
2023-05-18T17:07:17.729Z,12.92
2023-05-18T17:09:44.629Z,12.99
2023-05-18T17:12:11.920Z,12.98
2023-05-18T17:14:38.521Z,12.92
2023-05-18T17:17:06.157Z,12.74
2023-05-18T17:19:34.769Z,12.75
2023-05-18T17:22:01.452Z,12.67
2023-05-18T17:24:28.071Z,12.79
2023-05-18T17:26:54.732Z,12.86
2023-05-18T17:29:22.074Z,12.74
2023-05-18T17:31:48.877Z,12.63
2023-05-18T17:34:15.576Z,12.58
2023-05-18T17:36:42.624Z,12.53
2023-05-18T17:39:09.474Z,12.52
2023-05-18T17:41:36.354Z,12.48
2023-05-18T17:44:03.122Z,12.47
2023-05-18T17:46:30.096Z,12.70
2023-05-18T17:48:56.856Z,12.57
2023-05-18T17:51:24.658Z,12.49
2023-05-18T17:53:51.598Z,12.37
2023-05-18T17:56:18.254Z,12.64
2023-05-18T17:58:44.766Z,12.61
2023-05-18T18:01:12.157Z,12.55
2023-05-18T18:03:39.034Z,12.60
2023-05-18T18:06:06.420Z,12.71
2023-05-18T18:08:33.320Z,12.65
2023-05-18T18:10:59.870Z,12.56
2023-05-18T18:13:26.650Z,12.65
2023-05-18T18:15:53.492Z,12.67
2023-05-18T18:18:23.356Z,12.79
2023-05-18T18:20:50.031Z,12.80
2023-05-18T18:23:16.512Z,12.70
2023-05-18T18:25:44.036Z,12.77
2023-05-18T18:28:14.937Z,12.54
2023-05-18T18:30:44.238Z,12.48
2023-05-18T18:33:11.663Z,12.47
2023-05-18T18:35:38.278Z,12.50
2023-05-18T18:38:04.937Z,12.54
2023-05-18T18:40:31.667Z,12.57
2023-05-18T18:42:58.406Z,12.61
2023-05-18T18:45:25.681Z,12.39
2023-05-18T18:47:52.404Z,12.54
2023-05-18T18:50:18.892Z,12.54
2023-05-18T18:52:45.612Z,12.40
2023-05-18T18:55:12.107Z,12.53
2023-05-18T18:57:38.773Z,12.47
2023-05-18T19:00:11.086Z,12.44
2023-05-18T19:02:38.405Z,12.45
2023-05-18T19:05:05.536Z,12.57
2023-05-18T19:07:33.097Z,12.44
2023-05-18T19:09:59.760Z,12.39
2023-05-18T19:12:26.251Z,12.40
2023-05-18T19:14:52.750Z,12.43
2023-05-18T19:17:19.395Z,12.35
2023-05-18T19:19:46.070Z,12.31
2023-05-18T19:22:12.562Z,12.34
2023-05-18T19:24:40.044Z,12.38
2023-05-18T19:27:06.606Z,12.32
2023-05-18T19:29:36.457Z,12.38
2023-05-18T19:32:04.741Z,12.34
2023-05-18T19:34:31.617Z,12.33
2023-05-18T19:36:58.221Z,12.32
2023-05-18T19:39:24.763Z,12.29
2023-05-18T19:41:51.369Z,12.20
2023-05-18T19:44:17.871Z,12.21
2023-05-18T19:46:44.358Z,12.17
2023-05-18T19:49:11.138Z,11.95
2023-05-18T19:51:38.124Z,11.87
2023-05-18T19:54:04.724Z,11.87
2023-05-18T19:56:31.280Z,11.91
2023-05-18T19:58:57.873Z,11.95
2023-05-18T20:01:27.199Z,11.92
2023-05-18T20:03:53.820Z,11.81
2023-05-18T20:06:20.471Z,11.98
2023-05-18T20:08:47.934Z,11.87
2023-05-18T20:11:14.983Z,11.97
2023-05-18T20:13:43.776Z,11.77
2023-05-18T20:16:10.340Z,11.43
2023-05-18T20:18:37.553Z,11.32
2023-05-18T20:21:04.322Z,11.14
2023-05-18T20:23:30.871Z,10.91
2023-05-18T20:25:57.492Z,10.77
2023-05-18T20:28:26.152Z,10.61
2023-05-18T20:30:52.606Z,10.58
2023-05-18T20:33:19.341Z,10.57
2023-05-18T20:35:45.978Z,10.38
2023-05-18T20:38:12.641Z,10.24
2023-05-18T20:40:39.269Z,10.21
2023-05-18T20:43:09.949Z,10.08
2023-05-18T20:45:36.733Z,10.23
2023-05-18T20:48:06.468Z,10.06
2023-05-18T20:50:33.810Z,9.98
2023-05-18T20:53:00.617Z,9.98
2023-05-18T20:55:27.478Z,10.08
2023-05-18T20:57:53.958Z,10.02
2023-05-18T21:00:21.644Z,9.86
2023-05-18T21:02:48.788Z,9.90
2023-05-18T21:05:16.286Z,9.82
2023-05-18T21:07:43.722Z,9.51
2023-05-18T21:10:11.283Z,9.56
2023-05-18T21:12:38.240Z,9.69
2023-05-18T21:15:05.180Z,9.59
2023-05-18T21:17:31.922Z,9.65
2023-05-18T21:19:58.580Z,9.63
2023-05-18T21:22:25.184Z,9.72
2023-05-18T21:24:51.644Z,9.41
2023-05-18T21:27:18.119Z,9.42
2023-05-18T21:29:44.635Z,9.57
2023-05-18T21:32:11.402Z,9.55
2023-05-18T21:34:37.983Z,9.22
2023-05-18T21:37:04.888Z,9.18
2023-05-18T21:39:31.371Z,8.97
2023-05-18T21:41:57.908Z,9.24
2023-05-18T21:44:24.400Z,9.26
2023-05-18T21:46:57.834Z,9.40
2023-05-18T21:49:24.513Z,9.25
2023-05-18T21:51:51.361Z,9.27
2023-05-18T21:54:17.872Z,9.40
2023-05-18T21:56:44.510Z,9.40
2023-05-18T21:59:10.999Z,9.39
2023-05-18T22:01:37.577Z,9.31
2023-05-18T22:04:04.310Z,9.16
2023-05-18T22:06:31.150Z,9.08
2023-05-18T22:08:57.754Z,9.20
2023-05-18T22:11:24.609Z,8.95
2023-05-18T22:13:51.442Z,8.93
2023-05-18T22:16:18.021Z,8.95
2023-05-18T22:18:44.708Z,8.88
2023-05-18T22:21:11.327Z,8.89
2023-05-18T22:23:39.162Z,8.76
2023-05-18T22:26:05.791Z,8.80
2023-05-18T22:28:32.282Z,8.59
2023-05-18T22:30:58.751Z,8.60
2023-05-18T22:33:25.573Z,8.49
2023-05-18T22:35:52.080Z,8.52
2023-05-18T22:38:18.717Z,8.83
2023-05-18T22:40:45.623Z,8.66
2023-05-18T22:43:12.289Z,8.57
2023-05-18T22:45:38.955Z,8.49
2023-05-18T22:48:05.665Z,8.54
2023-05-18T22:50:32.416Z,8.48
2023-05-18T22:52:59.055Z,8.52
2023-05-18T22:55:25.600Z,8.46
2023-05-18T22:57:52.075Z,8.40
2023-05-18T23:00:19.149Z,8.49
2023-05-18T23:02:45.916Z,8.58
2023-05-18T23:05:13.481Z,8.57
2023-05-18T23:07:41.861Z,8.43
2023-05-18T23:10:11.272Z,8.43
2023-05-18T23:12:38.473Z,8.48
2023-05-18T23:15:06.156Z,8.40
2023-05-18T23:17:33.808Z,8.23
2023-05-18T23:20:09.959Z,8.20
2023-05-18T23:22:36.507Z,8.31
2023-05-18T23:25:04.694Z,8.27
2023-05-18T23:27:31.359Z,8.12
2023-05-18T23:29:57.935Z,8.10
2023-05-18T23:32:24.913Z,8.02
2023-05-18T23:34:52.975Z,8.06
2023-05-18T23:37:23.058Z,7.91
2023-05-18T23:39:51.851Z,8.14
2023-05-18T23:42:22.919Z,8.06
2023-05-18T23:44:49.714Z,8.00
2023-05-18T23:47:16.716Z,7.92
2023-05-18T23:49:44.326Z,7.80
2023-05-18T23:52:11.727Z,7.86
2023-05-18T23:54:38.698Z,7.77
2023-05-18T23:57:05.733Z,7.81
2023-05-18T23:59:32.522Z,7.96
